createdAt,value
2018-12-04T00:00:51.940Z,99.90
2018-12-04T00:03:20.899Z,99.90
2018-12-04T00:05:50.169Z,99.90
2018-12-04T00:08:18.319Z,99.90
2018-12-04T00:10:46.017Z,99.90
2018-12-04T00:13:13.926Z,99.90
2018-12-04T00:15:41.902Z,99.90
2018-12-04T00:18:09.814Z,99.90
2018-12-04T00:20:37.745Z,99.90
2018-12-04T00:23:05.504Z,99.90
2018-12-04T00:25:33.295Z,99.90
2018-12-04T00:28:01.075Z,99.90
2018-12-04T00:30:29.317Z,99.90
2018-12-04T00:32:57.060Z,99.90
2018-12-04T00:35:26.044Z,99.90
2018-12-04T00:37:53.920Z,99.90
2018-12-04T00:40:21.569Z,99.90
2018-12-04T00:42:49.264Z,99.90
2018-12-04T00:45:17.776Z,99.90
2018-12-04T00:47:45.530Z,99.90
2018-12-04T00:50:13.290Z,99.90
2018-12-04T00:52:41.041Z,99.90
2018-12-04T00:55:08.785Z,99.90
2018-12-04T00:57:41.405Z,99.90
2018-12-04T01:00:09.551Z,99.90
2018-12-04T01:02:42.669Z,99.60
2018-12-04T01:05:16.577Z,99.90
2018-12-04T01:07:44.269Z,99.90
2018-12-04T01:10:12.213Z,99.90
2018-12-04T01:12:39.952Z,99.90
2018-12-04T01:15:08.404Z,99.90
2018-12-04T01:17:37.799Z,99.90
2018-12-04T01:20:07.523Z,99.90
2018-12-04T01:22:38.473Z,99.90
2018-12-04T01:25:07.735Z,99.90
2018-12-04T01:27:35.491Z,99.90
2018-12-04T01:30:04.535Z,99.90
2018-12-04T01:32:32.866Z,99.90
2018-12-04T01:35:00.603Z,99.90
2018-12-04T01:37:29.339Z,99.90
2018-12-04T01:39:58.119Z,99.90
2018-12-04T01:42:31.926Z,99.90
2018-12-04T01:45:01.454Z,99.90
2018-12-04T01:47:30.628Z,99.90
2018-12-04T01:50:01.373Z,99.90
2018-12-04T01:52:31.822Z,99.90
2018-12-04T01:55:02.713Z,99.90
2018-12-04T01:57:33.112Z,99.90
2018-12-04T02:00:01.117Z,99.90
2018-12-04T02:02:33.372Z,99.90
2018-12-04T02:05:01.939Z,99.90
2018-12-04T02:07:33.012Z,99.90
2018-12-04T02:10:03.123Z,99.90
2018-12-04T02:12:31.873Z,99.90
2018-12-04T02:15:00.457Z,99.90
2018-12-04T02:17:28.031Z,99.90
2018-12-04T02:19:57.251Z,99.30
2018-12-04T02:22:24.839Z,99.70
2018-12-04T02:24:57.638Z,99.30
2018-12-04T02:27:27.828Z,98.40
2018-12-04T02:29:59.911Z,99.30
2018-12-04T02:32:27.594Z,98.10
2018-12-04T02:34:55.314Z,99.90
2018-12-04T02:37:23.226Z,99.90
2018-12-04T02:39:51.513Z,99.90
2018-12-04T02:42:24.270Z,99.90
2018-12-04T02:44:52.015Z,99.10
2018-12-04T02:47:19.782Z,99.40
2018-12-04T02:49:48.207Z,99.90
2018-12-04T02:52:15.923Z,99.90
2018-12-04T02:54:43.752Z,99.90
2018-12-04T02:57:11.456Z,99.90
2018-12-04T02:59:39.901Z,99.90
2018-12-04T03:02:07.678Z,99.90
2018-12-04T03:04:35.549Z,99.90
2018-12-04T03:07:03.415Z,99.90
2018-12-04T03:09:31.033Z,99.90
2018-12-04T03:11:59.517Z,99.90
2018-12-04T03:14:27.359Z,99.90
2018-12-04T03:16:55.007Z,99.90
2018-12-04T03:19:22.690Z,99.90
2018-12-04T03:21:51.248Z,99.90
2018-12-04T03:24:18.993Z,99.90
2018-12-04T03:26:46.710Z,99.90
2018-12-04T03:29:14.450Z,99.90
2018-12-04T03:31:42.181Z,99.90
2018-12-04T03:34:09.918Z,99.90
2018-12-04T03:36:37.644Z,99.90
2018-12-04T03:39:07.910Z,99.90
2018-12-04T03:41:35.807Z,99.90
2018-12-04T03:44:04.018Z,99.90
2018-12-04T03:46:31.797Z,99.90
2018-12-04T03:48:59.631Z,99.90
2018-12-04T03:51:28.573Z,99.90
2018-12-04T03:53:56.250Z,99.90
2018-12-04T03:56:23.902Z,99.90
2018-12-04T03:58:51.686Z,99.90
2018-12-04T04:01:19.487Z,99.90
2018-12-04T04:03:47.075Z,99.90
2018-12-04T04:06:14.736Z,99.90
2018-12-04T04:08:42.551Z,99.90
2018-12-04T04:11:10.187Z,97.20
2018-12-04T04:13:37.909Z,95.80
2018-12-04T04:16:05.668Z,94.20
2018-12-04T04:18:36.948Z,94.90
2018-12-04T04:21:05.174Z,94.90
2018-12-04T04:23:32.876Z,95.10
2018-12-04T04:26:00.592Z,95.10
2018-12-04T04:28:28.425Z,94.40
2018-12-04T04:30:56.073Z,95.60
2018-12-04T04:33:23.786Z,95.80
2018-12-04T04:35:55.568Z,97.10
2018-12-04T04:38:23.213Z,98.90
2018-12-04T04:40:51.262Z,99.90
2018-12-04T04:43:18.989Z,99.40
2018-12-04T04:45:46.583Z,99.60
2018-12-04T04:48:15.655Z,99.90
2018-12-04T04:50:43.268Z,99.90
2018-12-04T04:53:10.939Z,99.90
2018-12-04T04:55:38.540Z,99.90
2018-12-04T04:58:07.386Z,99.90
2018-12-04T05:00:35.099Z,99.90
2018-12-04T05:03:02.833Z,99.90
2018-12-04T05:05:35.351Z,99.90
2018-12-04T05:08:02.980Z,99.90
2018-12-04T05:10:31.968Z,99.90
2018-12-04T05:12:59.766Z,99.90
2018-12-04T05:15:27.577Z,99.90
2018-12-04T05:17:55.320Z,99.90
2018-12-04T05:20:23.200Z,99.90
2018-12-04T05:22:50.856Z,99.90
2018-12-04T05:25:19.156Z,99.90
2018-12-04T05:27:47.392Z,99.90
2018-12-04T05:30:15.759Z,99.90
2018-12-04T05:32:43.978Z,99.90
2018-12-04T05:35:11.633Z,99.90
2018-12-04T05:37:39.978Z,99.90
2018-12-04T05:40:07.915Z,99.90
2018-12-04T05:42:35.771Z,99.90
2018-12-04T05:45:05.799Z,99.90
2018-12-04T05:47:35.602Z,99.90
2018-12-04T05:50:03.933Z,99.90
2018-12-04T05:52:32.141Z,99.70
2018-12-04T05:55:00.758Z,99.50
2018-12-04T05:57:28.454Z,98.90
2018-12-04T05:59:56.229Z,98.80
2018-12-04T06:02:24.427Z,98.30
2018-12-04T06:04:52.258Z,98.50
2018-12-04T06:07:20.034Z,99.10
2018-12-04T06:09:48.299Z,99.50
2018-12-04T06:12:16.130Z,99.60
2018-12-04T06:14:43.958Z,99.90
2018-12-04T06:17:11.776Z,99.90
2018-12-04T06:19:41.698Z,99.90
2018-12-04T06:22:09.372Z,99.80
2018-12-04T06:24:37.142Z,99.90
2018-12-04T06:27:04.969Z,93.70
2018-12-04T06:29:33.374Z,95.30
2018-12-04T06:32:01.371Z,89.30
2018-12-04T06:34:29.816Z,87.80
2018-12-04T06:36:57.534Z,90.10
2018-12-04T06:39:25.287Z,86.00
2018-12-04T06:41:53.190Z,86.20
2018-12-04T06:44:20.868Z,78.00
2018-12-04T06:46:48.520Z,79.30
2018-12-04T06:49:16.776Z,79.80
2018-12-04T06:51:44.484Z,75.50
2018-12-04T06:54:13.348Z,78.30
2018-12-04T06:56:41.569Z,74.60
2018-12-04T06:59:09.834Z,75.20
2018-12-04T07:01:38.086Z,74.00
2018-12-04T07:04:05.870Z,76.20
2018-12-04T07:06:33.645Z,76.20
2018-12-04T07:09:01.487Z,76.50
2018-12-04T07:11:29.348Z,75.00
2018-12-04T07:13:57.077Z,79.70
2018-12-04T07:16:24.768Z,81.40
2018-12-04T07:18:52.348Z,77.10
2018-12-04T07:21:20.305Z,76.60
2018-12-04T07:23:47.966Z,79.30
2018-12-04T07:26:16.294Z,75.50
2018-12-04T07:28:44.481Z,73.50
2018-12-04T07:31:12.259Z,73.10
2018-12-04T07:33:39.905Z,73.60
2018-12-04T07:36:09.500Z,74.80
2018-12-04T07:38:37.138Z,73.30
2018-12-04T07:41:04.852Z,77.40
2018-12-04T07:43:32.487Z,75.40
2018-12-04T07:46:00.166Z,73.80
2018-12-04T07:48:28.133Z,74.50
2018-12-04T07:50:55.882Z,72.30
2018-12-04T07:53:23.595Z,77.10
2018-12-04T07:55:51.331Z,73.70
2018-12-04T07:58:19.075Z,73.50
2018-12-04T08:00:46.769Z,70.90
2018-12-04T08:03:14.607Z,69.50
2018-12-04T08:05:43.165Z,70.40
2018-12-04T08:08:10.895Z,69.70
2018-12-04T08:10:38.675Z,69.50
2018-12-04T08:13:06.472Z,68.50
2018-12-04T08:15:34.139Z,69.60
2018-12-04T08:18:01.870Z,70.30
2018-12-04T08:20:30.895Z,71.90
2018-12-04T08:22:58.639Z,71.50
2018-12-04T08:25:26.444Z,70.30
2018-12-04T08:27:54.066Z,69.50
2018-12-04T08:30:22.254Z,72.80
2018-12-04T08:32:49.911Z,70.00
2018-12-04T08:35:17.760Z,68.40
2018-12-04T08:37:45.407Z,69.30
2018-12-04T08:40:13.954Z,69.20
2018-12-04T08:42:42.040Z,69.20
2018-12-04T08:45:09.847Z,72.20
2018-12-04T08:47:37.452Z,73.00
2018-12-04T08:50:07.425Z,72.40
2018-12-04T08:52:35.071Z,72.50
2018-12-04T08:55:02.923Z,71.40
2018-12-04T08:57:30.667Z,73.00
2018-12-04T08:59:58.347Z,74.70
2018-12-04T09:02:26.182Z,73.90
2018-12-04T09:04:53.943Z,72.90
2018-12-04T09:07:22.046Z,68.80
2018-12-04T09:09:50.562Z,69.40
2018-12-04T09:12:18.334Z,70.60
2018-12-04T09:14:46.255Z,69.30
2018-12-04T09:17:14.149Z,68.40
2018-12-04T09:19:42.083Z,69.00
2018-12-04T09:22:09.925Z,70.50
2018-12-04T09:24:37.733Z,71.00
2018-12-04T09:27:06.005Z,71.60
2018-12-04T09:29:33.722Z,70.80
2018-12-04T09:32:01.570Z,70.00
2018-12-04T09:34:29.974Z,69.00
2018-12-04T09:36:58.244Z,71.50
2018-12-04T09:39:26.073Z,73.60
2018-12-04T09:41:58.411Z,71.10
2018-12-04T09:44:26.479Z,69.60
2018-12-04T09:46:54.953Z,68.70
2018-12-04T09:49:24.263Z,67.30
2018-12-04T09:51:52.050Z,68.50
2018-12-04T09:54:19.891Z,69.80
2018-12-04T09:56:47.550Z,70.70
2018-12-04T09:59:15.982Z,72.10
2018-12-04T10:01:44.376Z,72.10
2018-12-04T10:04:15.715Z,71.30
2018-12-04T10:06:43.579Z,72.30
2018-12-04T10:09:11.427Z,71.70
2018-12-04T10:11:39.427Z,70.10
2018-12-04T10:14:07.426Z,70.70
2018-12-04T10:16:35.536Z,72.90
2018-12-04T10:19:04.247Z,73.30
2018-12-04T10:21:32.303Z,72.90
2018-12-04T10:24:00.032Z,71.90
2018-12-04T10:26:29.145Z,71.80
2018-12-04T10:28:57.570Z,72.90
2018-12-04T10:31:25.373Z,75.70
2018-12-04T10:33:54.009Z,74.50
2018-12-04T10:36:21.834Z,75.00
2018-12-04T10:38:49.594Z,73.60
2018-12-04T10:41:17.513Z,73.00
2018-12-04T10:43:45.433Z,73.60
2018-12-04T10:46:13.302Z,74.10
2018-12-04T10:48:41.570Z,74.80
2018-12-04T10:51:09.709Z,77.30
2018-12-04T10:53:37.555Z,78.90
2018-12-04T10:56:05.746Z,75.60
2018-12-04T10:58:33.703Z,77.80
2018-12-04T11:01:11.477Z,78.00
2018-12-04T11:03:39.615Z,81.40
2018-12-04T11:06:07.403Z,76.50
2018-12-04T11:08:35.180Z,75.00
2018-12-04T11:11:03.683Z,73.40
2018-12-04T11:13:35.787Z,73.10
2018-12-04T11:16:04.204Z,73.30
2018-12-04T11:18:32.198Z,76.40
2018-12-04T11:21:00.527Z,77.10
2018-12-04T11:23:28.352Z,72.20
2018-12-04T11:25:56.266Z,73.50
2018-12-04T11:28:24.237Z,75.60
2018-12-04T11:30:52.801Z,72.90
2018-12-04T11:33:21.941Z,72.20
2018-12-04T11:35:49.766Z,71.50
2018-12-04T11:38:17.575Z,70.40
2018-12-04T11:40:45.418Z,71.10
2018-12-04T11:43:15.280Z,72.50
2018-12-04T11:45:46.751Z,69.40
2018-12-04T11:48:15.361Z,69.70
2018-12-04T11:50:44.066Z,66.00
2018-12-04T11:53:12.092Z,66.30
2018-12-04T11:55:42.406Z,65.60
2018-12-04T11:58:10.673Z,64.10
2018-12-04T12:00:41.556Z,64.30
2018-12-04T12:03:09.788Z,65.30
2018-12-04T12:05:42.397Z,65.00
2018-12-04T12:08:13.213Z,65.20
2018-12-04T12:10:42.483Z,64.80
2018-12-04T12:13:10.376Z,64.40
2018-12-04T12:15:38.338Z,64.70
2018-12-04T12:18:06.409Z,64.40
2018-12-04T12:20:34.176Z,63.40
2018-12-04T12:23:02.791Z,63.20
2018-12-04T12:25:30.555Z,62.90
2018-12-04T12:27:58.439Z,63.30
2018-12-04T12:30:30.147Z,63.20
2018-12-04T12:33:01.257Z,63.30
2018-12-04T12:35:29.182Z,63.60
2018-12-04T12:37:57.222Z,63.60
2018-12-04T12:40:27.047Z,63.30
2018-12-04T12:42:54.948Z,62.00
2018-12-04T12:45:22.954Z,62.10
2018-12-04T12:47:51.447Z,62.20
2018-12-04T12:50:19.332Z,62.40
2018-12-04T12:52:47.102Z,62.30
2018-12-04T12:55:16.206Z,62.10
2018-12-04T12:57:43.987Z,61.00
2018-12-04T13:00:11.751Z,60.60
2018-12-04T13:02:40.547Z,60.10
2018-12-04T13:05:08.543Z,60.80
2018-12-04T13:07:36.355Z,60.30
2018-12-04T13:10:05.949Z,60.60
2018-12-04T13:12:33.805Z,60.70
2018-12-04T13:15:06.021Z,60.50
2018-12-04T13:17:34.114Z,60.50
2018-12-04T13:20:02.983Z,60.30
2018-12-04T13:22:30.678Z,60.90
2018-12-04T13:24:58.350Z,60.60
2018-12-04T13:27:27.407Z,60.60
2018-12-04T13:29:55.095Z,60.60
2018-12-04T13:32:22.776Z,58.50
2018-12-04T13:34:50.775Z,60.00
2018-12-04T13:37:18.550Z,59.90
2018-12-04T13:39:46.288Z,57.60
2018-12-04T13:42:14.013Z,60.00
2018-12-04T13:44:41.811Z,59.50
2018-12-04T13:47:09.536Z,59.90
2018-12-04T13:49:37.791Z,56.70
2018-12-04T13:52:06.199Z,58.10
2018-12-04T13:54:34.298Z,59.50
2018-12-04T13:57:02.150Z,58.10
2018-12-04T13:59:30.609Z,57.60
2018-12-04T14:01:58.327Z,59.70
2018-12-04T14:04:26.063Z,60.00
2018-12-04T14:06:53.808Z,60.00
2018-12-04T14:09:25.997Z,59.60
2018-12-04T14:11:51.935Z,59.60
2018-12-04T14:14:20.233Z,59.30
2018-12-04T14:16:47.949Z,56.10
2018-12-04T14:19:16.287Z,56.00
2018-12-04T14:21:45.645Z,54.40
2018-12-04T14:24:14.598Z,55.20
2018-12-04T14:26:42.351Z,54.90
2018-12-04T14:29:10.184Z,54.80
2018-12-04T14:31:38.099Z,56.60
2018-12-04T14:34:05.862Z,58.50
2018-12-04T14:36:33.745Z,57.90
2018-12-04T14:39:01.657Z,57.70
2018-12-04T14:41:29.452Z,56.80
2018-12-04T14:43:57.213Z,57.80
2018-12-04T14:46:25.077Z,59.00
2018-12-04T14:48:52.921Z,58.80
2018-12-04T14:51:20.871Z,60.40
2018-12-04T14:53:48.728Z,60.30
2018-12-04T14:56:16.458Z,60.50
2018-12-04T14:58:44.317Z,60.40
2018-12-04T15:01:12.232Z,61.10
2018-12-04T15:03:40.160Z,61.50
2018-12-04T15:06:08.068Z,61.70
2018-12-04T15:08:36.274Z,62.50
2018-12-04T15:11:04.202Z,63.40
2018-12-04T15:13:32.205Z,63.90
2018-12-04T15:16:00.130Z,64.80
2018-12-04T15:18:28.101Z,65.70
2018-12-04T15:20:55.886Z,66.90
2018-12-04T15:23:23.664Z,67.20
2018-12-04T15:25:51.718Z,67.60
2018-12-04T15:28:19.460Z,66.60
2018-12-04T15:30:50.960Z,65.20
2018-12-04T15:33:18.785Z,65.60
2018-12-04T15:35:46.656Z,66.00
2018-12-04T15:38:14.532Z,65.70
2018-12-04T15:40:42.598Z,66.20
2018-12-04T15:43:10.499Z,66.60
2018-12-04T15:45:38.339Z,66.40
2018-12-04T15:48:06.317Z,66.10
2018-12-04T15:50:36.106Z,66.60
2018-12-04T15:53:04.373Z,66.00
2018-12-04T15:55:32.310Z,66.40
2018-12-04T15:58:00.801Z,67.30
2018-12-04T16:00:28.769Z,67.60
2018-12-04T16:02:56.504Z,66.80
2018-12-04T16:05:24.332Z,66.90
2018-12-04T16:07:52.176Z,66.40
2018-12-04T16:10:19.838Z,66.90
2018-12-04T16:12:47.939Z,66.40
2018-12-04T16:15:15.635Z,66.20
2018-12-04T16:17:43.411Z,66.90
2018-12-04T16:20:11.191Z,66.80
2018-12-04T16:22:39.563Z,67.20
2018-12-04T16:25:08.349Z,67.10
2018-12-04T16:27:36.150Z,67.50
2018-12-04T16:30:06.761Z,67.30
2018-12-04T16:32:34.727Z,68.30
2018-12-04T16:35:02.819Z,68.80
2018-12-04T16:37:30.738Z,69.10
2018-12-04T16:39:58.416Z,70.80
2018-12-04T16:42:27.400Z,71.40
2018-12-04T16:44:55.350Z,72.30
2018-12-04T16:47:24.298Z,73.40
2018-12-04T16:49:52.255Z,73.90
2018-12-04T16:52:20.128Z,75.40
2018-12-04T16:54:47.992Z,76.90
2018-12-04T16:57:16.214Z,76.90
2018-12-04T16:59:44.149Z,78.50
2018-12-04T17:02:12.315Z,81.10
2018-12-04T17:04:40.053Z,84.80
2018-12-04T17:07:08.081Z,82.80
2018-12-04T17:09:35.866Z,80.20
2018-12-04T17:12:04.123Z,80.70
2018-12-04T17:14:31.853Z,80.10
2018-12-04T17:16:59.804Z,80.40
2018-12-04T17:19:27.573Z,81.00
2018-12-04T17:21:55.487Z,84.50
2018-12-04T17:24:23.325Z,86.00
2018-12-04T17:26:52.212Z,86.20
2018-12-04T17:29:20.922Z,85.70
2018-12-04T17:31:48.761Z,86.00
2018-12-04T17:34:16.722Z,83.60
2018-12-04T17:36:44.804Z,82.60
2018-12-04T17:39:13.062Z,83.90
2018-12-04T17:41:41.037Z,86.30
2018-12-04T17:44:08.954Z,84.60
2018-12-04T17:46:36.676Z,82.20
2018-12-04T17:49:04.481Z,78.00
2018-12-04T17:51:36.314Z,78.40
2018-12-04T17:54:04.324Z,76.10
2018-12-04T17:56:32.154Z,76.40
2018-12-04T17:59:01.001Z,77.30
2018-12-04T18:01:28.843Z,80.50
2018-12-04T18:03:57.383Z,81.70
2018-12-04T18:06:25.436Z,81.70
2018-12-04T18:08:53.286Z,82.00
2018-12-04T18:11:21.895Z,83.50
2018-12-04T18:13:50.367Z,86.00
2018-12-04T18:16:18.507Z,86.90
2018-12-04T18:18:46.324Z,90.10
2018-12-04T18:21:14.903Z,89.90
2018-12-04T18:23:42.797Z,88.80
2018-12-04T18:26:15.028Z,89.00
2018-12-04T18:28:47.182Z,88.70
2018-12-04T18:31:15.704Z,89.70
2018-12-04T18:33:43.706Z,90.80
2018-12-04T18:36:14.762Z,89.40
2018-12-04T18:38:45.486Z,89.10
2018-12-04T18:41:14.011Z,90.00
2018-12-04T18:43:42.429Z,90.30
2018-12-04T18:46:10.926Z,90.60
2018-12-04T18:48:40.967Z,90.20
2018-12-04T18:51:08.696Z,90.30
2018-12-04T18:53:38.205Z,90.60
2018-12-04T18:56:06.064Z,91.10
2018-12-04T18:58:33.813Z,90.60
2018-12-04T19:01:02.337Z,90.10
2018-12-04T19:03:30.772Z,90.10
2018-12-04T19:05:58.592Z,95.90
2018-12-04T19:08:32.372Z,96.80
2018-12-04T19:11:00.255Z,90.90
2018-12-04T19:13:28.146Z,80.90
2018-12-04T19:15:56.292Z,81.50
2018-12-04T19:18:24.104Z,82.90
2018-12-04T19:20:51.937Z,86.50
2018-12-04T19:23:19.789Z,85.90
2018-12-04T19:25:51.995Z,86.80
2018-12-04T19:28:19.886Z,88.40
2018-12-04T19:30:47.825Z,89.00
2018-12-04T19:33:17.198Z,90.00
2018-12-04T19:35:51.792Z,90.90
2018-12-04T19:38:20.263Z,91.80
2018-12-04T19:40:48.195Z,90.00
2018-12-04T19:43:16.385Z,83.90
2018-12-04T19:45:44.138Z,83.60
2018-12-04T19:48:12.072Z,82.60
2018-12-04T19:50:39.875Z,83.30
2018-12-04T19:53:07.795Z,84.90
2018-12-04T19:55:36.220Z,87.40
2018-12-04T19:58:03.984Z,89.40
2018-12-04T20:00:31.921Z,90.00
2018-12-04T20:03:00.427Z,90.10
2018-12-04T20:05:28.332Z,91.60
2018-12-04T20:07:56.703Z,92.30
2018-12-04T20:10:25.015Z,92.00
2018-12-04T20:12:52.804Z,92.40
2018-12-04T20:15:20.721Z,92.20
2018-12-04T20:17:48.617Z,92.10
2018-12-04T20:20:16.359Z,92.20
2018-12-04T20:22:44.116Z,92.00
2018-12-04T20:25:12.121Z,91.90
2018-12-04T20:27:39.891Z,92.30
2018-12-04T20:30:08.079Z,93.40
2018-12-04T20:32:35.810Z,94.10
2018-12-04T20:35:04.992Z,93.50
2018-12-04T20:37:34.365Z,94.10
2018-12-04T20:40:02.158Z,95.00
2018-12-04T20:42:33.779Z,93.30
2018-12-04T20:45:04.856Z,93.70
2018-12-04T20:47:33.326Z,94.10
2018-12-04T20:50:01.198Z,93.30
2018-12-04T20:52:29.883Z,93.50
2018-12-04T20:54:57.730Z,94.00
2018-12-04T20:57:25.477Z,93.80
2018-12-04T20:59:54.380Z,93.00
2018-12-04T21:02:23.055Z,92.90
2018-12-04T21:04:52.083Z,93.30
2018-12-04T21:07:20.024Z,94.20
2018-12-04T21:09:48.408Z,93.70
2018-12-04T21:12:16.264Z,93.80
2018-12-04T21:14:44.046Z,94.00
2018-12-04T21:17:12.377Z,93.10
2018-12-04T21:19:40.683Z,94.50
2018-12-04T21:22:08.347Z,93.20
2018-12-04T21:24:36.920Z,92.50
2018-12-04T21:27:11.931Z,92.30
2018-12-04T21:29:45.059Z,91.10
2018-12-04T21:32:18.331Z,92.10
2018-12-04T21:34:51.642Z,92.10
2018-12-04T21:38:24.132Z,91.90
2018-12-04T21:40:58.524Z,88.10
2018-12-04T21:43:31.750Z,85.30
2018-12-04T21:46:05.110Z,87.40
2018-12-04T21:48:34.990Z,89.30
2018-12-04T21:51:02.949Z,87.20
2018-12-04T21:53:30.788Z,85.90
2018-12-04T21:55:58.506Z,84.10
2018-12-04T21:58:27.209Z,86.80
2018-12-04T22:00:54.959Z,86.50
2018-12-04T22:03:23.546Z,88.10
2018-12-04T22:05:51.740Z,88.70
2018-12-04T22:08:19.808Z,86.60
2018-12-04T22:10:48.250Z,86.10
2018-12-04T22:13:15.901Z,87.80
2018-12-04T22:15:43.562Z,90.10
2018-12-04T22:18:11.870Z,89.60
2018-12-04T22:20:39.861Z,90.30
2018-12-04T22:23:07.561Z,90.80
2018-12-04T22:25:36.763Z,90.40
2018-12-04T22:28:04.820Z,90.10
2018-12-04T22:30:32.521Z,90.10
2018-12-04T22:33:00.758Z,90.30
2018-12-04T22:35:28.470Z,90.60
2018-12-04T22:37:56.198Z,91.90
2018-12-04T22:40:25.121Z,92.20
2018-12-04T22:42:58.074Z,92.40
2018-12-04T22:45:26.256Z,92.90
2018-12-04T22:47:55.059Z,92.70
2018-12-04T22:50:23.662Z,90.70
2018-12-04T22:52:51.411Z,90.10
2018-12-04T22:55:19.089Z,90.50
2018-12-04T22:57:46.858Z,92.90
2018-12-04T23:00:34.384Z,92.80
2018-12-04T23:03:02.916Z,91.60
2018-12-04T23:05:30.586Z,92.50
2018-12-04T23:07:58.585Z,92.50
2018-12-04T23:10:26.335Z,93.60
2018-12-04T23:12:54.140Z,93.70
2018-12-04T23:15:21.866Z,92.90
2018-12-04T23:17:49.862Z,91.80
2018-12-04T23:20:17.639Z,90.50
2018-12-04T23:22:47.737Z,91.50
2018-12-04T23:25:15.460Z,92.10
2018-12-04T23:27:43.138Z,92.50
2018-12-04T23:30:11.949Z,92.10
2018-12-04T23:32:39.780Z,91.60
2018-12-04T23:35:08.253Z,91.90
2018-12-04T23:37:35.994Z,90.80
2018-12-04T23:40:04.235Z,91.00
2018-12-04T23:42:31.972Z,91.00
2018-12-04T23:44:59.727Z,90.50
2018-12-04T23:47:27.805Z,90.50
2018-12-04T23:49:56.074Z,90.70
2018-12-04T23:52:24.426Z,91.10
2018-12-04T23:54:52.136Z,91.10
2018-12-04T23:57:25.815Z,91.60
2018-12-04T23:59:53.592Z,91.30
